Terminal Aerodrome Forecast
Issued by NWS

Home | Current Version | Previous Version | Graphics & Text | Print | Product List | Glossary Off
Versions: 1 2 3 4 5 6 7 8 9 10 11 12 13 14 15 16 17 18 19 20

961
FTUS43 KABR 221926 AAA
TAFATY
TAF AMD
KATY 221926Z 2219/2318 14011KT P6SM BKN035 OVC080
     FM222000 11009KT 3SM -SN OVC015
     FM222100 11009KT 1SM -SN OVC020
     FM230700 00000KT P6SM OVC010
     FM230900 29005KT P6SM BKN007
     FM231400 30008KT P6SM BKN020=

USA.gov is the U.S. government's official web portal to all federal, state and local government web resources and services.